sensor_id;sensor_type;location;lat;lon;timestamp;pressure;altitude;pressure_sealevel;temperature;humidity
61742;BME280;47650;49.848;9.620;2023-07-13T00:02:18;99467.59;;;19.27;59.09
61742;BME280;47650;49.848;9.620;2023-07-13T00:04:43;99483.31;;;19.30;59.54
61742;BME280;47650;49.848;9.620;2023-07-13T00:07:09;99483.31;;;19.30;58.84
61742;BME280;47650;49.848;9.620;2023-07-13T00:09:34;99475.22;;;19.24;59.31
61742;BME280;47650;49.848;9.620;2023-07-13T00:12:01;99474.59;;;19.02;59.58
61742;BME280;47650;49.848;9.620;2023-07-13T00:14:29;99470.03;;;19.02;60.61
61742;BME280;47650;49.848;9.620;2023-07-13T00:16:54;99470.44;;;18.92;61.21
61742;BME280;47650;49.848;9.620;2023-07-13T00:19:20;99470.84;;;18.83;59.05
61742;BME280;47650;49.848;9.620;2023-07-13T00:21:46;99473.28;;;18.84;60.47
61742;BME280;47650;49.848;9.620;2023-07-13T00:24:14;99429.81;;;18.54;60.26
61742;BME280;47650;49.848;9.620;2023-07-13T00:26:41;99448.22;;;18.64;60.93
61742;BME280;47650;49.848;9.620;2023-07-13T00:29:09;99400.41;;;18.26;61.43
61742;BME280;47650;49.848;9.620;2023-07-13T00:31:36;99410.53;;;18.37;60.20
61742;BME280;47650;49.848;9.620;2023-07-13T00:34:02;99466.59;;;18.67;60.55
61742;BME280;47650;49.848;9.620;2023-07-13T00:36:29;99473.00;;;18.59;60.54
61742;BME280;47650;49.848;9.620;2023-07-13T00:38:55;99479.31;;;18.38;61.29
61742;BME280;47650;49.848;9.620;2023-07-13T00:41:20;99472.50;;;18.42;60.70
61742;BME280;47650;49.848;9.620;2023-07-13T00:43:46;99490.28;;;18.43;60.41
61742;BME280;47650;49.848;9.620;2023-07-13T00:46:18;99482.22;;;18.43;60.17
61742;BME280;47650;49.848;9.620;2023-07-13T00:48:45;99471.66;;;18.35;59.46
61742;BME280;47650;49.848;9.620;2023-07-13T00:51:12;99471.88;;;18.40;59.84
61742;BME280;47650;49.848;9.620;2023-07-13T00:53:38;99401.69;;;17.95;59.45
61742;BME280;47650;49.848;9.620;2023-07-13T00:56:04;99470.84;;;18.41;58.69
61742;BME280;47650;49.848;9.620;2023-07-13T00:58:30;99461.06;;;18.27;59.15
61742;BME280;47650;49.848;9.620;2023-07-13T01:00:55;99471.84;;;18.33;59.31
61742;BME280;47650;49.848;9.620;2023-07-13T01:03:21;99458.16;;;18.21;59.43
61742;BME280;47650;49.848;9.620;2023-07-13T01:05:48;99478.59;;;18.22;59.78
61742;BME280;47650;49.848;9.620;2023-07-13T01:08:15;99463.88;;;18.05;59.45
61742;BME280;47650;49.848;9.620;2023-07-13T01:10:41;99413.00;;;17.62;59.52
61742;BME280;47650;49.848;9.620;2023-07-13T01:13:09;99493.13;;;18.00;60.09
61742;BME280;47650;49.848;9.620;2023-07-13T01:18:00;99489.34;;;17.88;59.79
61742;BME280;47650;49.848;9.620;2023-07-13T01:20:28;99500.19;;;17.79;59.85
61742;BME280;47650;49.848;9.620;2023-07-13T01:22:53;99509.41;;;17.70;60.12
61742;BME280;47650;49.848;9.620;2023-07-13T01:25:19;99495.88;;;17.57;60.68
61742;BME280;47650;49.848;9.620;2023-07-13T01:27:45;99487.34;;;17.46;62.20
61742;BME280;47650;49.848;9.620;2023-07-13T01:30:11;99503.84;;;17.50;63.26
61742;BME280;47650;49.848;9.620;2023-07-13T01:32:36;99509.41;;;17.48;62.81
61742;BME280;47650;49.848;9.620;2023-07-13T01:35:02;99519.03;;;17.21;65.49
61742;BME280;47650;49.848;9.620;2023-07-13T01:37:27;99499.38;;;17.14;65.52
61742;BME280;47650;49.848;9.620;2023-07-13T01:39:58;99512.09;;;17.27;64.20
61742;BME280;47650;49.848;9.620;2023-07-13T01:42:23;99505.38;;;17.16;64.70
61742;BME280;47650;49.848;9.620;2023-07-13T01:44:49;99500.63;;;17.12;63.88
61742;BME280;47650;49.848;9.620;2023-07-13T01:47:14;99488.75;;;16.99;63.59
61742;BME280;47650;49.848;9.620;2023-07-13T01:49:39;99500.28;;;17.00;63.86
61742;BME280;47650;49.848;9.620;2023-07-13T01:52:05;99499.19;;;16.94;64.49
61742;BME280;47650;49.848;9.620;2023-07-13T01:54:30;99505.19;;;16.81;65.37
61742;BME280;47650;49.848;9.620;2023-07-13T01:56:55;99513.84;;;16.83;65.90
61742;BME280;47650;49.848;9.620;2023-07-13T01:59:22;99513.03;;;16.83;65.71
61742;BME280;47650;49.848;9.620;2023-07-13T02:01:47;99500.97;;;16.72;65.43
61742;BME280;47650;49.848;9.620;2023-07-13T02:04:13;99518.88;;;16.71;66.00
61742;BME280;47650;49.848;9.620;2023-07-13T02:06:38;99510.31;;;16.61;66.32
61742;BME280;47650;49.848;9.620;2023-07-13T02:09:03;99535.88;;;16.64;66.55
61742;BME280;47650;49.848;9.620;2023-07-13T02:11:29;99520.03;;;16.47;66.45
61742;BME280;47650;49.848;9.620;2023-07-13T02:14:01;99533.88;;;16.51;66.93
61742;BME280;47650;49.848;9.620;2023-07-13T02:16:27;99533.59;;;16.46;67.51
61742;BME280;47650;49.848;9.620;2023-07-13T02:18:55;99532.56;;;16.47;67.25
61742;BME280;47650;49.848;9.620;2023-07-13T02:21:22;99539.66;;;16.40;67.67
61742;BME280;47650;49.848;9.620;2023-07-13T02:23:49;99535.91;;;16.34;68.23
61742;BME280;47650;49.848;9.620;2023-07-13T02:26:14;99544.56;;;16.36;67.64
61742;BME280;47650;49.848;9.620;2023-07-13T02:28:41;99544.91;;;16.33;68.32
61742;BME280;47650;49.848;9.620;2023-07-13T02:31:11;99550.63;;;16.30;68.53
61742;BME280;47650;49.848;9.620;2023-07-13T02:33:37;99554.69;;;16.26;68.61
61742;BME280;47650;49.848;9.620;2023-07-13T02:36:03;99557.75;;;16.23;68.75
61742;BME280;47650;49.848;9.620;2023-07-13T02:38:31;99557.09;;;16.06;70.27
61742;BME280;47650;49.848;9.620;2023-07-13T02:40:59;99526.72;;;15.98;69.84
61742;BME280;47650;49.848;9.620;2023-07-13T02:43:24;99531.50;;;15.88;70.64
61742;BME280;47650;49.848;9.620;2023-07-13T02:45:49;99508.91;;;15.76;70.85
61742;BME280;47650;49.848;9.620;2023-07-13T02:48:15;99547.75;;;16.02;71.88
61742;BME280;47650;49.848;9.620;2023-07-13T02:50:40;99541.31;;;15.96;70.62
61742;BME280;47650;49.848;9.620;2023-07-13T02:53:05;99522.56;;;15.81;70.22
61742;BME280;47650;49.848;9.620;2023-07-13T02:55:31;99542.19;;;15.88;71.05
61742;BME280;47650;49.848;9.620;2023-07-13T02:57:56;99544.69;;;15.90;70.98
61742;BME280;47650;49.848;9.620;2023-07-13T03:00:23;99537.94;;;15.79;70.55
61742;BME280;47650;49.848;9.620;2023-07-13T03:02:48;99542.28;;;15.80;71.13
61742;BME280;47650;49.848;9.620;2023-07-13T03:05:14;99548.00;;;15.77;72.34
61742;BME280;47650;49.848;9.620;2023-07-13T03:07:40;99535.41;;;15.63;72.68
61742;BME280;47650;49.848;9.620;2023-07-13T03:10:06;99554.69;;;15.73;72.21
61742;BME280;47650;49.848;9.620;2023-07-13T03:12:32;99545.34;;;15.69;73.48
61742;BME280;47650;49.848;9.620;2023-07-13T03:14:58;99509.16;;;15.43;73.59
61742;BME280;47650;49.848;9.620;2023-07-13T03:17:24;99543.50;;;15.69;73.34
61742;BME280;47650;49.848;9.620;2023-07-13T03:19:49;99558.19;;;15.73;72.53
61742;BME280;47650;49.848;9.620;2023-07-13T03:22:18;99531.75;;;15.55;72.73
61742;BME280;47650;49.848;9.620;2023-07-13T03:24:45;99561.91;;;15.64;72.70
61742;BME280;47650;49.848;9.620;2023-07-13T03:27:10;99556.94;;;15.61;72.14
61742;BME280;47650;49.848;9.620;2023-07-13T03:29:36;99554.34;;;15.53;71.63
61742;BME280;47650;49.848;9.620;2023-07-13T03:32:01;99577.47;;;15.60;71.07
61742;BME280;47650;49.848;9.620;2023-07-13T03:34:27;99579.22;;;15.53;68.98
61742;BME280;47650;49.848;9.620;2023-07-13T03:36:56;99586.22;;;15.54;69.57
61742;BME280;47650;49.848;9.620;2023-07-13T03:39:21;99596.09;;;15.54;69.50
61742;BME280;47650;49.848;9.620;2023-07-13T03:41:47;99593.28;;;15.47;69.50
61742;BME280;47650;49.848;9.620;2023-07-13T03:44:12;99590.97;;;15.44;70.03
61742;BME280;47650;49.848;9.620;2023-07-13T03:46:38;99605.63;;;15.48;69.86
61742;BME280;47650;49.848;9.620;2023-07-13T03:49:04;99601.63;;;15.52;69.95
61742;BME280;47650;49.848;9.620;2023-07-13T03:51:30;99606.56;;;15.55;69.72
61742;BME280;47650;49.848;9.620;2023-07-13T03:53:57;99609.94;;;15.57;69.65
61742;BME280;47650;49.848;9.620;2023-07-13T03:56:22;99597.75;;;15.55;69.96
61742;BME280;47650;49.848;9.620;2023-07-13T03:58:50;99610.53;;;15.68;69.82
61742;BME280;47650;49.848;9.620;2023-07-13T04:01:18;99605.66;;;15.71;68.97
61742;BME280;47650;49.848;9.620;2023-07-13T04:03:44;99612.78;;;15.79;68.81
61742;BME280;47650;49.848;9.620;2023-07-13T04:06:22;99619.72;;;15.88;68.87
61742;BME280;47650;49.848;9.620;2023-07-13T04:08:53;99612.56;;;15.89;67.89
61742;BME280;47650;49.848;9.620;2023-07-13T04:11:20;99616.00;;;15.97;68.30
61742;BME280;47650;49.848;9.620;2023-07-13T04:13:47;99614.97;;;15.98;67.77
61742;BME280;47650;49.848;9.620;2023-07-13T04:16:13;99569.56;;;15.75;67.61
61742;BME280;47650;49.848;9.620;2023-07-13T04:18:39;99625.34;;;16.16;67.84
61742;BME280;47650;49.848;9.620;2023-07-13T04:21:04;99625.47;;;16.23;66.95
61742;BME280;47650;49.848;9.620;2023-07-13T04:23:30;99624.38;;;16.32;66.92
61742;BME280;47650;49.848;9.620;2023-07-13T04:25:56;99624.81;;;16.36;66.72
61742;BME280;47650;49.848;9.620;2023-07-13T04:28:22;99633.59;;;16.45;66.94
61742;BME280;47650;49.848;9.620;2023-07-13T04:30:49;99634.53;;;16.52;66.58
61742;BME280;47650;49.848;9.620;2023-07-13T04:33:14;99631.78;;;16.60;66.23
61742;BME280;47650;49.848;9.620;2023-07-13T04:35:42;99633.81;;;16.58;66.75
61742;BME280;47650;49.848;9.620;2023-07-13T04:38:07;99631.97;;;16.73;66.18
61742;BME280;47650;49.848;9.620;2023-07-13T04:40:33;99637.91;;;16.84;65.78
61742;BME280;47650;49.848;9.620;2023-07-13T04:43:00;99638.25;;;16.96;65.52
61742;BME280;47650;49.848;9.620;2023-07-13T04:45:25;99644.53;;;17.03;65.16
61742;BME280;47650;49.848;9.620;2023-07-13T04:47:52;99629.56;;;17.08;64.85
61742;BME280;47650;49.848;9.620;2023-07-13T04:50:18;99646.53;;;17.16;65.44
61742;BME280;47650;49.848;9.620;2023-07-13T04:52:49;99643.84;;;17.31;65.06
61742;BME280;47650;49.848;9.620;2023-07-13T04:55:16;99640.00;;;17.18;65.33
61742;BME280;47650;49.848;9.620;2023-07-13T04:57:42;99653.25;;;17.41;64.85
61742;BME280;47650;49.848;9.620;2023-07-13T05:00:08;99634.13;;;17.44;64.61
61742;BME280;47650;49.848;9.620;2023-07-13T05:02:38;99629.13;;;17.41;64.57
61742;BME280;47650;49.848;9.620;2023-07-13T05:05:03;99656.53;;;17.58;64.25
61742;BME280;47650;49.848;9.620;2023-07-13T05:07:29;99650.38;;;17.64;64.30
61742;BME280;47650;49.848;9.620;2023-07-13T05:09:54;99653.34;;;17.70;65.03
61742;BME280;47650;49.848;9.620;2023-07-13T05:12:20;99661.63;;;17.75;64.83
61742;BME280;47650;49.848;9.620;2023-07-13T05:14:45;99611.78;;;17.59;64.47
61742;BME280;47650;49.848;9.620;2023-07-13T05:17:11;99602.47;;;17.55;63.46
61742;BME280;47650;49.848;9.620;2023-07-13T05:19:36;99649.09;;;17.97;63.59
61742;BME280;47650;49.848;9.620;2023-07-13T05:22:03;99667.03;;;18.18;63.10
61742;BME280;47650;49.848;9.620;2023-07-13T05:24:29;99674.38;;;18.31;62.48
61742;BME280;47650;49.848;9.620;2023-07-13T05:26:55;99662.69;;;18.45;62.80
61742;BME280;47650;49.848;9.620;2023-07-13T05:29:21;99665.50;;;18.58;61.86
61742;BME280;47650;49.848;9.620;2023-07-13T05:31:48;99664.72;;;18.71;61.27
61742;BME280;47650;49.848;9.620;2023-07-13T05:34:14;99666.06;;;18.82;60.16
61742;BME280;47650;49.848;9.620;2023-07-13T05:36:40;99661.78;;;18.94;60.06
61742;BME280;47650;49.848;9.620;2023-07-13T05:39:05;99656.50;;;19.08;59.39
61742;BME280;47650;49.848;9.620;2023-07-13T05:41:31;99635.63;;;19.10;60.02
61742;BME280;47650;49.848;9.620;2023-07-13T05:43:56;99627.56;;;19.10;58.89
61742;BME280;47650;49.848;9.620;2023-07-13T05:46:21;99658.84;;;19.31;57.90
61742;BME280;47650;49.848;9.620;2023-07-13T05:48:47;99661.16;;;19.41;58.32
61742;BME280;47650;49.848;9.620;2023-07-13T05:51:12;99662.63;;;19.50;57.63
61742;BME280;47650;49.848;9.620;2023-07-13T05:53:38;99657.06;;;19.58;57.29
61742;BME280;47650;49.848;9.620;2023-07-13T05:56:06;99653.72;;;19.43;56.88
61742;BME280;47650;49.848;9.620;2023-07-13T05:58:36;99615.47;;;18.86;57.21
61742;BME280;47650;49.848;9.620;2023-07-13T06:01:06;99661.25;;;19.67;56.27
61742;BME280;47650;49.848;9.620;2023-07-13T06:03:31;99609.81;;;19.22;56.23
61742;BME280;47650;49.848;9.620;2023-07-13T06:05:58;99631.09;;;19.79;55.49
61742;BME280;47650;49.848;9.620;2023-07-13T06:08:27;99663.00;;;19.95;54.59
61742;BME280;47650;49.848;9.620;2023-07-13T06:10:53;99656.34;;;20.24;53.89
61742;BME280;47650;49.848;9.620;2023-07-13T06:13:18;99668.75;;;19.79;50.03
61742;BME280;47650;49.848;9.620;2023-07-13T06:15:52;99661.75;;;20.31;48.18
61742;BME280;47650;49.848;9.620;2023-07-13T06:18:17;99679.72;;;19.77;50.51
61742;BME280;47650;49.848;9.620;2023-07-13T06:20:42;99663.00;;;20.42;49.55
61742;BME280;47650;49.848;9.620;2023-07-13T06:23:08;99661.94;;;20.36;49.42
61742;BME280;47650;49.848;9.620;2023-07-13T06:25:33;99664.22;;;19.92;50.12
61742;BME280;47650;49.848;9.620;2023-07-13T06:28:00;99685.16;;;20.51;49.55
61742;BME280;47650;49.848;9.620;2023-07-13T06:30:26;99674.13;;;19.79;49.44
61742;BME280;47650;49.848;9.620;2023-07-13T06:32:51;99675.41;;;20.09;48.61
61742;BME280;47650;49.848;9.620;2023-07-13T06:35:17;99671.28;;;20.00;48.68
61742;BME280;47650;49.848;9.620;2023-07-13T06:37:42;99660.50;;;20.27;48.63
61742;BME280;47650;49.848;9.620;2023-07-13T06:40:08;99665.47;;;20.70;47.12
61742;BME280;47650;49.848;9.620;2023-07-13T06:42:33;99663.47;;;21.11;45.82
61742;BME280;47650;49.848;9.620;2023-07-13T06:44:58;99650.16;;;21.22;45.22
61742;BME280;47650;49.848;9.620;2023-07-13T06:47:24;99624.41;;;20.81;45.84
61742;BME280;47650;49.848;9.620;2023-07-13T06:49:49;99640.38;;;21.35;44.99
61742;BME280;47650;49.848;9.620;2023-07-13T06:52:14;99676.72;;;21.71;43.47
61742;BME280;47650;49.848;9.620;2023-07-13T06:54:40;99676.81;;;21.89;43.56
61742;BME280;47650;49.848;9.620;2023-07-13T06:57:06;99655.69;;;20.96;42.62
61742;BME280;47650;49.848;9.620;2023-07-13T06:59:32;99677.91;;;21.82;43.54
61742;BME280;47650;49.848;9.620;2023-07-13T07:01:57;99677.69;;;21.38;42.27
61742;BME280;47650;49.848;9.620;2023-07-13T07:04:22;99671.28;;;21.32;41.25
61742;BME280;47650;49.848;9.620;2023-07-13T07:06:48;99680.19;;;21.46;40.86
61742;BME280;47650;49.848;9.620;2023-07-13T07:09:13;99688.06;;;21.41;41.60
61742;BME280;47650;49.848;9.620;2023-07-13T07:11:39;99687.63;;;21.44;41.74
61742;BME280;47650;49.848;9.620;2023-07-13T07:16:29;99703.88;;;21.31;40.21
61742;BME280;47650;49.848;9.620;2023-07-13T07:18:57;99692.75;;;21.00;40.49
61742;BME280;47650;49.848;9.620;2023-07-13T07:21:22;99689.75;;;21.35;40.41
61742;BME280;47650;49.848;9.620;2023-07-13T07:23:48;99690.63;;;21.22;39.98
61742;BME280;47650;49.848;9.620;2023-07-13T07:26:13;99694.28;;;21.35;39.48
61742;BME280;47650;49.848;9.620;2023-07-13T07:28:39;99683.66;;;21.60;39.69
61742;BME280;47650;49.848;9.620;2023-07-13T07:31:04;99704.13;;;21.09;40.59
61742;BME280;47650;49.848;9.620;2023-07-13T07:33:29;99685.59;;;21.33;40.75
61742;BME280;47650;49.848;9.620;2023-07-13T07:35:55;99701.44;;;21.68;40.38
61742;BME280;47650;49.848;9.620;2023-07-13T07:38:20;99655.06;;;21.84;39.57
61742;BME280;47650;49.848;9.620;2023-07-13T07:40:45;99692.78;;;21.52;39.68
61742;BME280;47650;49.848;9.620;2023-07-13T07:43:12;99690.00;;;21.72;39.10
61742;BME280;47650;49.848;9.620;2023-07-13T07:45:38;99675.94;;;21.64;39.67
61742;BME280;47650;49.848;9.620;2023-07-13T07:48:05;99690.25;;;22.03;39.28
61742;BME280;47650;49.848;9.620;2023-07-13T07:50:31;99693.19;;;21.94;39.71
61742;BME280;47650;49.848;9.620;2023-07-13T07:52:58;99691.94;;;21.97;39.65
61742;BME280;47650;49.848;9.620;2023-07-13T07:55:24;99678.50;;;22.15;39.39
61742;BME280;47650;49.848;9.620;2023-07-13T07:57:51;99656.91;;;22.41;37.94
61742;BME280;47650;49.848;9.620;2023-07-13T08:00:20;99689.34;;;22.41;38.47
61742;BME280;47650;49.848;9.620;2023-07-13T08:02:45;99693.47;;;22.68;38.70
61742;BME280;47650;49.848;9.620;2023-07-13T08:05:11;99700.63;;;22.56;38.53
61742;BME280;47650;49.848;9.620;2023-07-13T08:07:38;99699.75;;;22.62;37.83
61742;BME280;47650;49.848;9.620;2023-07-13T08:10:05;99530.53;;;21.17;37.83
61742;BME280;47650;49.848;9.620;2023-07-13T08:12:34;99693.09;;;22.40;37.49
61742;BME280;47650;49.848;9.620;2023-07-13T08:15:00;99719.28;;;22.07;37.51
61742;BME280;47650;49.848;9.620;2023-07-13T08:17:26;99695.84;;;22.33;37.39
61742;BME280;47650;49.848;9.620;2023-07-13T08:19:52;99693.78;;;22.28;37.63
61742;BME280;47650;49.848;9.620;2023-07-13T08:22:18;99701.00;;;22.60;37.35
61742;BME280;47650;49.848;9.620;2023-07-13T08:24:44;99697.84;;;22.44;38.24
61742;BME280;47650;49.848;9.620;2023-07-13T08:27:13;99564.94;;;21.85;36.87
61742;BME280;47650;49.848;9.620;2023-07-13T08:29:39;99703.25;;;22.88;36.50
61742;BME280;47650;49.848;9.620;2023-07-13T08:32:05;99698.31;;;23.03;36.14
61742;BME280;47650;49.848;9.620;2023-07-13T08:34:35;99686.44;;;23.04;36.68
61742;BME280;47650;49.848;9.620;2023-07-13T08:37:01;99643.00;;;22.62;36.27
61742;BME280;47650;49.848;9.620;2023-07-13T08:39:28;99682.34;;;23.69;36.14
61742;BME280;47650;49.848;9.620;2023-07-13T08:42:00;99670.28;;;23.83;35.62
61742;BME280;47650;49.848;9.620;2023-07-13T08:44:34;99686.09;;;23.98;35.02
61742;BME280;47650;49.848;9.620;2023-07-13T08:47:02;99686.09;;;23.38;35.75
61742;BME280;47650;49.848;9.620;2023-07-13T08:49:28;99694.06;;;23.63;36.09
61742;BME280;47650;49.848;9.620;2023-07-13T08:52:00;99674.44;;;23.68;35.33
61742;BME280;47650;49.848;9.620;2023-07-13T08:56:59;99687.91;;;23.56;35.48
61742;BME280;47650;49.848;9.620;2023-07-13T08:59:30;99688.69;;;24.05;34.42
61742;BME280;47650;49.848;9.620;2023-07-13T09:02:56;99681.69;;;24.28;33.22
61742;BME280;47650;49.848;9.620;2023-07-13T09:05:02;99600.34;;;23.20;33.64
61742;BME280;47650;49.848;9.620;2023-07-13T09:10:21;99683.59;;;24.51;33.25
61742;BME280;47650;49.848;9.620;2023-07-13T09:13:06;99681.50;;;23.99;33.65
61742;BME280;47650;49.848;9.620;2023-07-13T09:15:38;99677.56;;;24.37;32.97
61742;BME280;47650;49.848;9.620;2023-07-13T09:18:22;99690.88;;;24.38;33.25
61742;BME280;47650;49.848;9.620;2023-07-13T09:23:36;99695.09;;;25.17;32.43
61742;BME280;47650;49.848;9.620;2023-07-13T09:26:13;99693.31;;;25.34;31.68
61742;BME280;47650;49.848;9.620;2023-07-13T09:28:43;99653.53;;;26.15;30.01
61742;BME280;47650;49.848;9.620;2023-07-13T09:31:30;99681.16;;;26.79;30.11
61742;BME280;47650;49.848;9.620;2023-07-13T09:33:59;99671.06;;;26.97;29.75
61742;BME280;47650;49.848;9.620;2023-07-13T09:36:28;99677.25;;;26.36;30.36
61742;BME280;47650;49.848;9.620;2023-07-13T09:44:38;99667.22;;;29.72;25.83
61742;BME280;47650;49.848;9.620;2023-07-13T09:47:20;99676.16;;;28.84;25.90
61742;BME280;47650;49.848;9.620;2023-07-13T09:49:54;99663.69;;;29.03;26.06
61742;BME280;47650;49.848;9.620;2023-07-13T09:52:20;99668.22;;;28.40;27.24
61742;BME280;47650;49.848;9.620;2023-07-13T09:54:49;99619.63;;;28.79;25.68
61742;BME280;47650;49.848;9.620;2023-07-13T09:57:19;99671.31;;;28.16;27.58
61742;BME280;47650;49.848;9.620;2023-07-13T09:59:50;99689.19;;;27.08;28.78
61742;BME280;47650;49.848;9.620;2023-07-13T10:02:34;99631.28;;;29.17;26.08
61742;BME280;47650;49.848;9.620;2023-07-13T10:05:07;99665.91;;;30.42;24.41
61742;BME280;47650;49.848;9.620;2023-07-13T10:07:40;99627.56;;;29.49;25.34
61742;BME280;47650;49.848;9.620;2023-07-13T10:10:14;99672.69;;;28.99;26.63
61742;BME280;47650;49.848;9.620;2023-07-13T10:12:40;99676.44;;;31.15;23.93
61742;BME280;47650;49.848;9.620;2023-07-13T10:15:15;99667.28;;;30.39;24.14
61742;BME280;47650;49.848;9.620;2023-07-13T10:17:41;99665.78;;;29.44;25.09
61742;BME280;47650;49.848;9.620;2023-07-13T10:20:07;99653.66;;;29.14;24.97
61742;BME280;47650;49.848;9.620;2023-07-13T10:25:15;99680.25;;;29.39;25.59
61742;BME280;47650;49.848;9.620;2023-07-13T10:27:42;99698.63;;;29.70;25.17
61742;BME280;47650;49.848;9.620;2023-07-13T10:30:38;99663.72;;;30.23;24.59
61742;BME280;47650;49.848;9.620;2023-07-13T10:33:10;99658.78;;;32.50;22.42
61742;BME280;47650;49.848;9.620;2023-07-13T10:35:37;99610.34;;;29.43;24.81
61742;BME280;47650;49.848;9.620;2023-07-13T10:38:18;99674.38;;;30.55;24.30
61742;BME280;47650;49.848;9.620;2023-07-13T10:43:27;99668.50;;;31.68;22.63
61742;BME280;47650;49.848;9.620;2023-07-13T10:45:54;99673.28;;;30.21;24.31
61742;BME280;47650;49.848;9.620;2023-07-13T10:48:21;99641.91;;;32.09;22.50
61742;BME280;47650;49.848;9.620;2023-07-13T10:50:50;99677.09;;;30.50;24.44
61742;BME280;47650;49.848;9.620;2023-07-13T10:53:32;99678.16;;;28.24;26.43
61742;BME280;47650;49.848;9.620;2023-07-13T10:56:01;99671.59;;;27.16;28.44
61742;BME280;47650;49.848;9.620;2023-07-13T10:58:36;99672.75;;;28.61;26.03
61742;BME280;47650;49.848;9.620;2023-07-13T11:01:13;99673.78;;;29.03;25.78
61742;BME280;47650;49.848;9.620;2023-07-13T11:03:58;99667.19;;;30.85;23.54
61742;BME280;47650;49.848;9.620;2023-07-13T11:06:29;99665.53;;;31.00;23.04
61742;BME280;47650;49.848;9.620;2023-07-13T11:09:17;99665.28;;;28.94;24.25
61742;BME280;47650;49.848;9.620;2023-07-13T11:11:43;99703.34;;;30.00;23.77
61742;BME280;47650;49.848;9.620;2023-07-13T11:14:41;99684.34;;;29.42;24.51
61742;BME280;47650;49.848;9.620;2023-07-13T11:22:48;99668.91;;;29.84;23.59
61742;BME280;47650;49.848;9.620;2023-07-13T11:27:52;99656.88;;;29.01;25.78
61742;BME280;47650;49.848;9.620;2023-07-13T11:35:49;99661.25;;;29.91;24.15
61742;BME280;47650;49.848;9.620;2023-07-13T11:38:21;99542.56;;;32.17;21.58
61742;BME280;47650;49.848;9.620;2023-07-13T11:40:48;99655.41;;;31.95;21.66
61742;BME280;47650;49.848;9.620;2023-07-13T11:43:15;99651.09;;;31.39;22.79
61742;BME280;47650;49.848;9.620;2023-07-13T11:45:42;99650.59;;;30.25;23.63
61742;BME280;47650;49.848;9.620;2023-07-13T11:48:27;99650.22;;;29.50;25.19
61742;BME280;47650;49.848;9.620;2023-07-13T11:50:57;99683.59;;;27.64;27.30
61742;BME280;47650;49.848;9.620;2023-07-13T11:53:27;99663.19;;;26.78;27.94
61742;BME280;47650;49.848;9.620;2023-07-13T11:55:53;99662.88;;;27.90;26.76
61742;BME280;47650;49.848;9.620;2023-07-13T11:58:21;99644.84;;;30.06;24.32
61742;BME280;47650;49.848;9.620;2023-07-13T12:00:48;99654.38;;;33.65;20.05
61742;BME280;47650;49.848;9.620;2023-07-13T12:03:19;99656.16;;;32.69;20.67
61742;BME280;47650;49.848;9.620;2023-07-13T12:06:03;99643.38;;;34.36;19.01
61742;BME280;47650;49.848;9.620;2023-07-13T12:08:31;99661.59;;;31.76;22.01
61742;BME280;47650;49.848;9.620;2023-07-13T12:11:15;99651.63;;;31.85;21.60
61742;BME280;47650;49.848;9.620;2023-07-13T12:13:41;99665.50;;;29.35;24.36
61742;BME280;47650;49.848;9.620;2023-07-13T12:16:32;99659.03;;;30.65;23.50
61742;BME280;47650;49.848;9.620;2023-07-13T12:19:02;99659.50;;;28.80;25.07
61742;BME280;47650;49.848;9.620;2023-07-13T12:21:31;99642.38;;;29.84;23.89
61742;BME280;47650;49.848;9.620;2023-07-13T12:23:57;99670.19;;;27.35;26.21
61742;BME280;47650;49.848;9.620;2023-07-13T12:26:23;99648.13;;;30.03;23.77
61742;BME280;47650;49.848;9.620;2023-07-13T12:28:52;99605.97;;;30.50;22.56
61742;BME280;47650;49.848;9.620;2023-07-13T12:31:34;99657.72;;;31.33;22.37
61742;BME280;47650;49.848;9.620;2023-07-13T12:34:09;99675.50;;;31.85;21.58
61742;BME280;47650;49.848;9.620;2023-07-13T12:36:40;99664.63;;;32.97;20.45
61742;BME280;47650;49.848;9.620;2023-07-13T12:39:45;99665.84;;;32.86;20.07
61742;BME280;47650;49.848;9.620;2023-07-13T12:42:21;99655.53;;;36.05;17.75
61742;BME280;47650;49.848;9.620;2023-07-13T12:44:49;99647.69;;;34.42;18.84
61742;BME280;47650;49.848;9.620;2023-07-13T12:47:15;99653.50;;;35.37;19.14
61742;BME280;47650;49.848;9.620;2023-07-13T12:49:46;99669.34;;;30.99;22.94
61742;BME280;47650;49.848;9.620;2023-07-13T12:52:22;99673.56;;;30.55;23.39
61742;BME280;47650;49.848;9.620;2023-07-13T12:57:29;99665.00;;;30.82;23.39
61742;BME280;47650;49.848;9.620;2023-07-13T12:59:55;99665.50;;;29.35;24.40
61742;BME280;47650;49.848;9.620;2023-07-13T13:02:29;99674.53;;;28.83;25.50
61742;BME280;47650;49.848;9.620;2023-07-13T13:04:57;99667.25;;;29.83;24.23
61742;BME280;47650;49.848;9.620;2023-07-13T13:07:23;99609.25;;;29.44;24.36
61742;BME280;47650;49.848;9.620;2023-07-13T13:09:50;99652.69;;;29.51;24.20
61742;BME280;47650;49.848;9.620;2023-07-13T13:12:17;99668.09;;;30.09;23.97
61742;BME280;47650;49.848;9.620;2023-07-13T13:14:43;99632.53;;;30.04;23.25
61742;BME280;47650;49.848;9.620;2023-07-13T13:17:23;99614.19;;;29.68;23.67
61742;BME280;47650;49.848;9.620;2023-07-13T13:19:50;99637.69;;;30.72;22.71
61742;BME280;47650;49.848;9.620;2023-07-13T13:22:18;99666.72;;;30.32;23.04
61742;BME280;47650;49.848;9.620;2023-07-13T13:24:43;99661.81;;;30.18;23.16
61742;BME280;47650;49.848;9.620;2023-07-13T13:27:15;99663.63;;;31.60;21.50
61742;BME280;47650;49.848;9.620;2023-07-13T13:29:42;99649.38;;;34.05;19.61
61742;BME280;47650;49.848;9.620;2023-07-13T13:32:12;99646.31;;;33.73;19.76
61742;BME280;47650;49.848;9.620;2023-07-13T13:34:37;99663.72;;;34.95;18.98
61742;BME280;47650;49.848;9.620;2023-07-13T13:37:03;99635.06;;;32.35;20.51
61742;BME280;47650;49.848;9.620;2023-07-13T13:41:56;99673.16;;;28.85;24.44
61742;BME280;47650;49.848;9.620;2023-07-13T13:44:22;99684.59;;;29.30;25.25
61742;BME280;47650;49.848;9.620;2023-07-13T13:46:49;99683.13;;;27.45;27.29
61742;BME280;47650;49.848;9.620;2023-07-13T13:49:18;99633.97;;;26.69;27.66